SKBO/BOG METAR and TAF weather

Enter ICAO airport designator
Station Type Date Time Source
SKBO METAR 2019/08/25 07:00 UTC NOAA

SKBO 250700Z 04004KT 9999 FEW017 SCT200 09/07 A3037 NOSIG


Station Type Date Time Source
SKBO Decoded METAR 2019/08/25 07:00 UTC NOAA

Station name not available
Aug 25, 2019 - 03:00 AM EDT / 2019.08.25 0700 UTC
Wind: from the NE (040 degrees) at 5 MPH (4 KT):0
Visibility: greater than 7 mile(s):0
Sky conditions: partly cloudy
Temperature: 48 F (9 C)
Dew Point: 44 F (7 C)
Relative Humidity: 87%
Pressure (altimeter): 30.37 in. Hg (1028 hPa)
ob: SKBO 250700Z 04004KT 9999 FEW017 SCT200 09/07 A3037 NOSIG
cycle: 7

Station Type Date Time Source
SKBO TAF 2019/08/25 06:42 UTC NOAA

TAF SKBO 250430Z 2506/2606 14005KT 9999 FEW020 SCT090
BECMG 2514/2516 14012KT
TEMPO 2517/2521 VCSH BKN020
BECMG 2600/2602 32004KT TX19/2518Z TN10/2511Z

Example: see airport list